createdAt,value
2024-01-25T00:02:38.891Z,4.00
2024-01-25T00:05:41.526Z,4.50
2024-01-25T00:08:44.625Z,4.50
2024-01-25T00:11:47.116Z,5.75
2024-01-25T00:14:49.951Z,2.00
2024-01-25T00:17:52.637Z,3.00
2024-01-25T00:20:55.613Z,4.00
2024-01-25T00:23:58.082Z,3.75
2024-01-25T00:27:00.913Z,2.00
2024-01-25T00:30:03.411Z,2.00
2024-01-25T00:33:06.565Z,2.50
2024-01-25T00:36:09.935Z,4.00
2024-01-25T00:39:13.105Z,2.00
2024-01-25T00:42:16.001Z,4.00
2024-01-25T00:45:18.774Z,3.75
2024-01-25T00:48:21.681Z,0.50
2024-01-25T00:51:24.849Z,3.50
2024-01-25T00:54:27.883Z,2.50
2024-01-25T00:57:31.148Z,2.00
2024-01-25T01:00:34.018Z,1.00
2024-01-25T01:03:37.826Z,1.00
2024-01-25T01:06:40.745Z,1.00
2024-01-25T01:09:43.654Z,2.00
2024-01-25T01:12:46.468Z,2.50
2024-01-25T01:15:49.347Z,2.00
2024-01-25T01:18:51.996Z,1.00
2024-01-25T01:21:55.040Z,1.00
2024-01-25T01:24:57.664Z,3.00
2024-01-25T01:28:00.666Z,1.00
2024-01-25T01:31:04.004Z,4.00
2024-01-25T01:34:06.913Z,2.00
2024-01-25T01:37:09.537Z,3.00
2024-01-25T01:40:12.591Z,5.00
2024-01-25T01:43:22.201Z,1.25
2024-01-25T01:46:39.077Z,4.00
2024-01-25T01:49:41.779Z,2.00
2024-01-25T01:52:44.565Z,3.00
2024-01-25T01:55:47.193Z,4.50
2024-01-25T01:58:50.224Z,3.00
2024-01-25T02:01:53.646Z,5.50
2024-01-25T02:04:56.499Z,2.50
2024-01-25T02:07:59.001Z,4.75
2024-01-25T02:11:02.058Z,4.75
2024-01-25T02:14:04.429Z,3.00
2024-01-25T02:17:07.127Z,4.25
2024-01-25T02:20:10.341Z,4.00
2024-01-25T02:23:13.111Z,5.50
2024-01-25T02:26:15.943Z,5.00
2024-01-25T02:29:18.795Z,5.50
2024-01-25T02:32:21.189Z,7.50
2024-01-25T02:35:24.081Z,3.50
2024-01-25T02:38:26.766Z,5.50
2024-01-25T02:41:33.522Z,5.25
2024-01-25T02:44:36.006Z,8.25
2024-01-25T02:47:39.036Z,4.00
2024-01-25T02:50:41.568Z,2.00
2024-01-25T02:53:44.292Z,4.25
2024-01-25T02:56:47.310Z,4.50
2024-01-25T02:59:50.032Z,4.75
2024-01-25T03:02:52.900Z,4.75
2024-01-25T03:05:55.989Z,4.00
2024-01-25T03:08:58.434Z,5.75
2024-01-25T03:12:01.214Z,5.00
2024-01-25T03:15:06.306Z,6.00
2024-01-25T03:18:09.774Z,4.50
2024-01-25T03:21:12.225Z,4.00
2024-01-25T03:24:15.245Z,5.75
2024-01-25T03:27:17.750Z,5.00
2024-01-25T03:30:20.465Z,4.25
2024-01-25T03:33:23.396Z,5.00
2024-01-25T03:36:26.257Z,4.50
2024-01-25T03:39:28.664Z,7.75
2024-01-25T03:42:31.445Z,5.75
2024-01-25T03:45:34.055Z,8.50
2024-01-25T03:48:36.747Z,4.50
2024-01-25T03:51:39.251Z,9.00
2024-01-25T03:54:42.054Z,5.00
2024-01-25T03:57:44.689Z,5.00
2024-01-25T04:00:47.591Z,6.00
2024-01-25T04:03:50.371Z,6.75
2024-01-25T04:06:54.155Z,6.25
2024-01-25T04:09:56.862Z,4.00
2024-01-25T04:13:01.663Z,5.50
2024-01-25T04:16:04.524Z,5.25
2024-01-25T04:19:07.381Z,4.25
2024-01-25T04:22:09.793Z,6.50
2024-01-25T04:25:12.559Z,7.75
2024-01-25T04:28:15.110Z,5.50
2024-01-25T04:31:18.527Z,7.50
2024-01-25T04:34:21.241Z,8.25
2024-01-25T04:37:24.306Z,8.50
2024-01-25T04:40:26.878Z,8.50
2024-01-25T04:43:29.722Z,5.50
2024-01-25T04:46:37.989Z,7.50
2024-01-25T04:49:41.921Z,6.00
2024-01-25T04:52:44.396Z,5.75
2024-01-25T04:55:47.104Z,8.00
2024-01-25T04:58:49.534Z,5.25
2024-01-25T05:01:54.404Z,6.50
2024-01-25T05:04:57.047Z,8.00
2024-01-25T05:07:59.997Z,5.50
2024-01-25T05:11:02.589Z,3.50
2024-01-25T05:14:05.244Z,6.50
2024-01-25T05:17:07.898Z,8.25
2024-01-25T05:20:11.163Z,6.00
2024-01-25T05:23:13.886Z,4.00
2024-01-25T05:26:17.041Z,5.75
2024-01-25T05:29:19.738Z,8.00
2024-01-25T05:32:22.555Z,6.25
2024-01-25T05:35:25.453Z,6.75
2024-01-25T05:38:28.417Z,4.75
2024-01-25T05:41:31.635Z,7.50
2024-01-25T05:44:34.352Z,6.25
2024-01-25T05:47:36.939Z,8.25
2024-01-25T05:50:39.696Z,8.25
2024-01-25T05:53:42.276Z,6.25
2024-01-25T05:56:44.941Z,5.25
2024-01-25T05:59:47.914Z,5.00
2024-01-25T06:02:50.668Z,5.25
2024-01-25T06:05:54.009Z,9.50
2024-01-25T06:09:02.629Z,7.75
2024-01-25T06:12:14.213Z,4.75
2024-01-25T06:15:17.044Z,7.00
2024-01-25T06:18:20.698Z,9.00
2024-01-25T06:21:24.997Z,7.00
2024-01-25T06:24:27.754Z,6.25
2024-01-25T06:27:30.830Z,3.75
2024-01-25T06:30:33.303Z,7.75
2024-01-25T06:33:36.253Z,8.00
2024-01-25T06:36:39.060Z,8.00
2024-01-25T06:39:42.124Z,8.25
2024-01-25T06:42:46.305Z,7.00
2024-01-25T06:45:49.199Z,9.00
2024-01-25T06:48:52.633Z,9.67
2024-01-25T06:51:56.099Z,8.00
2024-01-25T06:54:58.813Z,9.00
2024-01-25T06:58:01.799Z,6.75
2024-01-25T07:01:06.085Z,8.00
2024-01-25T07:04:10.895Z,8.00
2024-01-25T07:07:13.850Z,10.33
2024-01-25T07:10:16.756Z,8.67
2024-01-25T07:13:19.657Z,5.67
2024-01-25T07:16:23.453Z,10.33
2024-01-25T07:19:26.195Z,9.67
2024-01-25T07:22:29.129Z,9.50
2024-01-25T07:25:31.672Z,8.33
2024-01-25T07:28:34.536Z,7.33
2024-01-25T07:31:37.157Z,11.00
2024-01-25T07:34:40.043Z,6.33
2024-01-25T07:37:42.585Z,11.00
2024-01-25T07:40:45.319Z,10.50
2024-01-25T07:43:47.719Z,8.75
2024-01-25T07:46:50.496Z,9.67
2024-01-25T07:49:53.431Z,15.00
2024-01-25T07:52:56.373Z,15.67
2024-01-25T07:55:58.750Z,12.33
2024-01-25T07:59:01.637Z,8.67
2024-01-25T08:02:04.436Z,10.00
2024-01-25T08:05:07.549Z,6.50
2024-01-25T08:08:10.195Z,6.25
2024-01-25T08:11:13.174Z,7.75
2024-01-25T08:14:15.704Z,7.50
2024-01-25T08:17:18.795Z,8.25
2024-01-25T08:20:21.925Z,4.50
2024-01-25T08:23:24.941Z,7.00
2024-01-25T08:26:27.393Z,6.25
2024-01-25T08:29:30.343Z,7.50
2024-01-25T08:32:32.836Z,4.50
2024-01-25T08:35:35.811Z,7.25
2024-01-25T08:38:38.479Z,3.00
2024-01-25T08:41:43.438Z,4.25
2024-01-25T08:44:51.740Z,3.00
2024-01-25T08:47:54.658Z,5.50
2024-01-25T08:50:57.458Z,4.50
2024-01-25T08:54:00.323Z,3.50
2024-01-25T08:57:02.847Z,4.75
2024-01-25T09:00:11.806Z,4.00
2024-01-25T09:03:16.533Z,1.75
2024-01-25T09:06:19.822Z,4.75
2024-01-25T09:09:22.327Z,4.00
2024-01-25T09:12:25.242Z,3.50
2024-01-25T09:15:27.735Z,5.00
2024-01-25T09:18:30.553Z,2.50
2024-01-25T09:21:33.031Z,2.00
2024-01-25T09:24:37.727Z,4.00
2024-01-25T09:27:40.398Z,5.25
2024-01-25T09:30:43.775Z,4.25
2024-01-25T09:33:46.617Z,2.00
2024-01-25T09:36:49.597Z,5.00
2024-01-25T09:39:55.318Z,4.50
2024-01-25T09:42:58.396Z,3.00
2024-01-25T09:46:01.741Z,5.25
2024-01-25T09:49:04.980Z,7.50
2024-01-25T09:52:08.438Z,5.00
2024-01-25T09:55:15.902Z,5.50
2024-01-25T09:58:18.849Z,2.00
2024-01-25T10:01:21.892Z,4.00
2024-01-25T10:04:25.863Z,4.25
2024-01-25T10:07:43.418Z,4.00
2024-01-25T10:10:46.953Z,6.00
2024-01-25T10:13:52.413Z,5.50
2024-01-25T10:16:55.975Z,5.50
2024-01-25T10:20:00.865Z,3.50
2024-01-25T10:23:04.381Z,4.75
2024-01-25T10:26:09.463Z,5.00
2024-01-25T10:29:12.292Z,3.50
2024-01-25T10:32:15.848Z,4.25
2024-01-25T10:35:21.151Z,5.00
2024-01-25T10:38:26.930Z,4.00
2024-01-25T10:41:29.905Z,4.00
2024-01-25T10:44:32.959Z,4.50
2024-01-25T10:47:37.080Z,3.00
2024-01-25T10:50:40.823Z,4.00
2024-01-25T10:53:43.506Z,4.00
2024-01-25T10:56:48.810Z,4.00
2024-01-25T10:59:51.360Z,2.00
2024-01-25T11:02:54.879Z,2.00
2024-01-25T11:06:13.510Z,2.00
2024-01-25T11:09:22.452Z,2.00
2024-01-25T11:12:25.187Z,2.00
2024-01-25T11:15:38.110Z,3.50
2024-01-25T11:19:07.153Z,2.00
2024-01-25T11:22:13.159Z,5.00
2024-01-25T11:25:21.889Z,4.75
2024-01-25T11:28:24.769Z,5.75
2024-01-25T11:31:29.351Z,4.75
2024-01-25T11:34:33.193Z,4.25
2024-01-25T11:37:36.091Z,6.50
2024-01-25T11:40:39.314Z,4.50
2024-01-25T11:43:42.690Z,3.75
2024-01-25T11:46:45.684Z,2.50
2024-01-25T11:49:48.446Z,5.00
2024-01-25T11:52:52.244Z,4.75
2024-01-25T11:55:57.189Z,4.00
2024-01-25T11:59:00.368Z,3.50
2024-01-25T12:02:03.218Z,2.00
2024-01-25T12:05:06.966Z,3.00
2024-01-25T12:08:15.065Z,1.00
2024-01-25T12:11:20.251Z,1.00
2024-01-25T12:14:25.546Z,1.00
2024-01-25T12:17:30.687Z,1.00
2024-01-25T12:20:33.665Z,0.00
2024-01-25T12:23:38.552Z,1.00
2024-01-25T12:26:43.027Z,1.00
2024-01-25T12:29:45.925Z,1.00
2024-01-25T12:32:51.237Z,1.75
2024-01-25T12:35:55.750Z,1.00
2024-01-25T12:38:58.432Z,3.00
2024-01-25T12:42:05.293Z,2.50
2024-01-25T12:45:08.362Z,2.00
2024-01-25T12:48:11.660Z,1.00
2024-01-25T12:51:14.379Z,2.00
2024-01-25T12:54:17.302Z,4.50
2024-01-25T12:57:20.253Z,4.00
2024-01-25T13:00:24.010Z,2.00
2024-01-25T13:03:26.891Z,3.00
2024-01-25T13:06:29.900Z,4.00
2024-01-25T13:09:35.091Z,1.00
2024-01-25T13:12:38.291Z,4.00
2024-01-25T13:15:40.775Z,2.00
2024-01-25T13:18:43.706Z,4.00
2024-01-25T13:21:46.494Z,2.00
2024-01-25T13:24:49.465Z,2.67
2024-01-25T13:27:53.273Z,4.00
2024-01-25T13:30:56.382Z,5.00
2024-01-25T13:33:59.191Z,4.67
2024-01-25T13:37:02.180Z,5.67
2024-01-25T13:40:05.682Z,3.33
2024-01-25T13:43:08.545Z,1.67
2024-01-25T13:46:11.050Z,5.00
2024-01-25T13:49:14.002Z,2.00
2024-01-25T13:52:20.429Z,6.33
2024-01-25T13:55:23.345Z,2.00
2024-01-25T13:58:25.691Z,4.00
2024-01-25T14:01:29.845Z,2.00
2024-01-25T14:04:32.415Z,4.00
2024-01-25T14:07:35.804Z,2.00
2024-01-25T14:10:38.744Z,1.00
2024-01-25T14:13:42.184Z,4.00
2024-01-25T14:16:45.057Z,2.67
2024-01-25T14:19:49.831Z,3.33
2024-01-25T14:22:52.709Z,7.00
2024-01-25T14:25:55.610Z,4.33
2024-01-25T14:28:58.077Z,5.00
2024-01-25T14:32:03.906Z,7.00
2024-01-25T14:35:07.129Z,7.00
2024-01-25T14:38:10.457Z,5.00
2024-01-25T14:41:13.082Z,4.33
2024-01-25T14:44:16.130Z,5.00
2024-01-25T14:47:23.564Z,7.00
2024-01-25T14:50:26.728Z,4.67
2024-01-25T14:53:29.580Z,9.33
2024-01-25T14:56:32.413Z,5.67
2024-01-25T14:59:34.864Z,5.00
2024-01-25T15:02:37.691Z,7.00
2024-01-25T15:05:40.272Z,7.00
2024-01-25T15:08:43.044Z,7.67
2024-01-25T15:11:45.595Z,9.33
2024-01-25T15:14:48.469Z,7.33
2024-01-25T15:17:51.055Z,5.67
2024-01-25T15:20:55.150Z,8.00
2024-01-25T15:23:58.119Z,7.67
2024-01-25T15:27:00.951Z,7.00
2024-01-25T15:30:03.642Z,4.00
2024-01-25T15:33:07.230Z,6.33
2024-01-25T15:36:09.894Z,4.00
2024-01-25T15:39:12.879Z,5.67
2024-01-25T15:42:15.389Z,7.00
2024-01-25T15:45:19.495Z,7.33
2024-01-25T15:48:22.115Z,7.00
2024-01-25T15:51:25.448Z,7.00
2024-01-25T15:54:28.048Z,10.00
2024-01-25T15:57:32.683Z,4.00
2024-01-25T16:00:36.677Z,10.33
2024-01-25T16:03:40.947Z,5.00
2024-01-25T16:06:43.730Z,4.33
2024-01-25T16:09:48.035Z,4.67
2024-01-25T16:12:51.199Z,4.00
2024-01-25T16:15:54.807Z,4.00
2024-01-25T16:18:57.414Z,4.00
2024-01-25T16:22:00.224Z,5.00
2024-01-25T16:25:02.936Z,4.00
2024-01-25T16:28:06.270Z,4.67
2024-01-25T16:31:10.231Z,4.00
2024-01-25T16:34:13.270Z,2.00
2024-01-25T16:37:15.991Z,5.00
2024-01-25T16:40:19.379Z,4.00
2024-01-25T16:43:21.998Z,4.00
2024-01-25T16:46:25.106Z,4.00
2024-01-25T16:49:29.886Z,4.00
2024-01-25T16:52:32.997Z,2.00
2024-01-25T16:55:35.540Z,2.67
2024-01-25T16:58:38.383Z,4.00
2024-01-25T17:01:41.263Z,1.67
2024-01-25T17:04:44.556Z,3.33
2024-01-25T17:07:47.225Z,2.00
2024-01-25T17:10:50.090Z,2.67
2024-01-25T17:13:52.788Z,1.33
2024-01-25T17:16:56.083Z,1.33
2024-01-25T17:20:01.829Z,1.33
2024-01-25T17:23:07.117Z,1.67
2024-01-25T17:26:09.821Z,2.00
2024-01-25T17:29:12.838Z,2.00
2024-01-25T17:32:15.499Z,4.00
2024-01-25T17:35:18.356Z,4.00
2024-01-25T17:38:20.954Z,2.00
2024-01-25T17:41:24.146Z,2.00
2024-01-25T17:44:26.855Z,3.33
2024-01-25T17:47:30.027Z,2.00
2024-01-25T17:50:32.649Z,3.33
2024-01-25T17:53:36.810Z,0.00
2024-01-25T17:56:41.412Z,1.00
2024-01-25T17:59:44.425Z,4.00
2024-01-25T18:02:47.096Z,2.00
2024-01-25T18:05:50.166Z,1.00
2024-01-25T18:08:52.655Z,4.33
2024-01-25T18:11:55.638Z,4.00
2024-01-25T18:14:58.226Z,3.33
2024-01-25T18:18:01.411Z,5.00
2024-01-25T18:21:04.239Z,6.33
2024-01-25T18:24:07.912Z,8.00
2024-01-25T18:27:10.608Z,7.00
2024-01-25T18:30:14.953Z,7.67
2024-01-25T18:33:18.392Z,7.33
2024-01-25T18:36:21.860Z,8.00
2024-01-25T18:39:25.581Z,5.67
2024-01-25T18:42:29.244Z,10.00
2024-01-25T18:45:32.952Z,4.67
2024-01-25T18:48:37.199Z,8.00
2024-01-25T18:51:41.142Z,4.00
2024-01-25T18:54:47.051Z,3.33
2024-01-25T18:57:51.541Z,7.00
2024-01-25T19:00:58.208Z,4.67
2024-01-25T19:04:03.964Z,4.00
2024-01-25T19:07:08.909Z,2.33
2024-01-25T19:10:12.516Z,4.00
2024-01-25T19:13:17.166Z,5.00
2024-01-25T19:16:21.260Z,6.33
2024-01-25T19:19:25.376Z,5.00
2024-01-25T19:22:30.953Z,6.33
2024-01-25T19:25:34.960Z,7.00
2024-01-25T19:28:38.574Z,5.33
2024-01-25T19:31:42.399Z,7.00
2024-01-25T19:34:45.794Z,9.67
2024-01-25T19:37:49.986Z,7.00
2024-01-25T19:40:53.387Z,10.67
2024-01-25T19:43:57.761Z,12.33
2024-01-25T19:47:01.528Z,8.33
2024-01-25T19:50:06.348Z,7.33
2024-01-25T19:53:10.159Z,7.33
2024-01-25T19:56:17.545Z,5.33
2024-01-25T19:59:23.283Z,8.33
2024-01-25T20:02:27.705Z,5.67
2024-01-25T20:05:33.848Z,10.00
2024-01-25T20:08:38.411Z,8.33
2024-01-25T20:11:42.233Z,10.00
2024-01-25T20:14:47.306Z,9.00
2024-01-25T20:17:51.432Z,10.00
2024-01-25T20:20:57.259Z,7.00
2024-01-25T20:24:02.881Z,7.67
2024-01-25T20:27:07.511Z,7.00
2024-01-25T20:30:12.847Z,7.00
2024-01-25T20:33:19.266Z,7.67
2024-01-25T20:36:23.228Z,7.00
2024-01-25T20:39:28.220Z,6.67
2024-01-25T20:42:32.143Z,9.67
2024-01-25T20:45:36.674Z,9.00
2024-01-25T20:48:44.715Z,9.67
2024-01-25T20:51:48.473Z,7.00
2024-01-25T20:54:52.405Z,8.33
2024-01-25T20:57:56.134Z,5.33
2024-01-25T21:00:59.010Z,3.00
2024-01-25T21:04:02.695Z,9.00
2024-01-25T21:07:05.485Z,6.67
2024-01-25T21:10:10.358Z,7.00
2024-01-25T21:13:13.253Z,4.33
2024-01-25T21:16:17.516Z,6.67
2024-01-25T21:19:20.569Z,4.00
2024-01-25T21:22:23.499Z,7.33
2024-01-25T21:25:26.747Z,7.67
2024-01-25T21:28:29.778Z,8.33
2024-01-25T21:31:32.420Z,9.00
2024-01-25T21:34:35.458Z,9.33
2024-01-25T21:37:38.103Z,7.67
2024-01-25T21:40:41.116Z,5.33
2024-01-25T21:43:43.866Z,10.00
2024-01-25T21:46:47.083Z,5.67
2024-01-25T21:49:49.815Z,7.00
2024-01-25T21:52:52.591Z,4.67
2024-01-25T21:55:55.817Z,9.00
2024-01-25T21:58:59.203Z,8.33
2024-01-25T22:02:01.704Z,9.00
2024-01-25T22:05:04.760Z,9.33
2024-01-25T22:08:07.466Z,7.00
2024-01-25T22:11:10.217Z,5.00
2024-01-25T22:14:13.059Z,7.00
2024-01-25T22:17:15.937Z,5.00
2024-01-25T22:20:18.540Z,7.00
2024-01-25T22:23:21.484Z,8.33
2024-01-25T22:26:24.165Z,6.33
2024-01-25T22:29:26.935Z,7.67
2024-01-25T22:32:29.776Z,9.33
2024-01-25T22:35:32.630Z,9.00
2024-01-25T22:38:34.982Z,4.00
2024-01-25T22:41:37.768Z,7.00
2024-01-25T22:44:40.389Z,6.67
2024-01-25T22:47:43.265Z,9.67
2024-01-25T22:50:45.789Z,9.00
2024-01-25T22:53:48.763Z,5.33
2024-01-25T22:56:51.428Z,4.00
2024-01-25T22:59:54.354Z,9.00
2024-01-25T23:02:59.329Z,7.67
2024-01-25T23:06:02.350Z,6.00
2024-01-25T23:09:05.369Z,7.67
2024-01-25T23:12:09.393Z,9.00
2024-01-25T23:15:12.190Z,4.00
2024-01-25T23:18:15.110Z,9.00
2024-01-25T23:21:18.076Z,4.67
2024-01-25T23:24:20.985Z,5.33
2024-01-25T23:27:23.369Z,6.33
2024-01-25T23:30:26.228Z,8.67
2024-01-25T23:33:28.756Z,7.33
2024-01-25T23:36:31.866Z,8.33
2024-01-25T23:39:34.576Z,6.00
2024-01-25T23:42:38.506Z,11.33
2024-01-25T23:45:41.238Z,9.67
2024-01-25T23:48:44.207Z,9.33
2024-01-25T23:51:47.445Z,6.33
2024-01-25T23:54:50.366Z,7.33
2024-01-25T23:57:53.754Z,6.00
